Time;durP1;ratioP1;P1;durP2;ratioP2;P2;SDS_P1;SDS_P2;PMS_P1;PMS_P2;Temp;Humidity;BMP_temperature;BMP_pressure;BME280_temperature;BME280_humidity;BME280_pressure;Samples;Min_cycle;Max_cycle;Signal;HPM_P1;HPM_P2
2022/12/11 00:00:10;;;;;;;6.60;6.30;;;17.10;62.60;;;;;;5056595;28;45010;-72
2022/12/11 00:02:38;;;;;;;6.97;6.57;;;17.20;62.40;;;;;;5045294;28;43367;-72
2022/12/11 00:05:07;;;;;;;6.73;6.33;;;17.20;62.00;;;;;;5047268;28;43501;-70
2022/12/11 00:07:36;;;;;;;6.57;6.27;;;17.30;61.90;;;;;;5045477;28;43952;-71
2022/12/11 00:10:04;;;;;;;6.73;6.33;;;17.30;61.90;;;;;;5045153;28;43507;-72
2022/12/11 00:12:32;;;;;;;6.37;5.97;;;17.20;61.90;;;;;;5045289;28;43895;-71
2022/12/11 00:15:00;;;;;;;6.50;6.20;;;17.20;62.20;;;;;;5045117;28;43536;-70
2022/12/11 00:17:30;;;;;;;6.23;5.93;;;17.20;62.00;;;;;;5043820;28;45721;-72
2022/12/11 00:19:58;;;;;;;6.30;6.00;;;17.20;62.00;;;;;;5041993;28;43511;-71
2022/12/11 00:22:26;;;;;;;6.43;6.13;;;17.20;62.10;;;;;;5051814;28;43485;-71
2022/12/11 00:24:54;;;;;;;7.17;6.77;;;17.20;62.20;;;;;;5045843;28;43496;-72
2022/12/11 00:27:22;;;;;;;6.87;6.47;;;17.10;62.20;;;;;;5045658;28;45567;-70
2022/12/11 00:29:50;;;;;;;6.30;6.00;;;17.10;62.50;;;;;;5043407;28;43512;-71
2022/12/11 00:32:18;;;;;;;6.67;6.37;;;17.10;62.30;;;;;;5051090;28;43532;-71
2022/12/11 00:34:47;;;;;;;6.43;6.13;;;17.10;62.30;;;;;;5046552;28;43482;-71
2022/12/11 00:37:15;;;;;;;5.90;5.70;;;17.10;62.30;;;;;;5044774;28;45117;-71
2022/12/11 00:39:43;;;;;;;6.23;6.00;;;17.10;62.40;;;;;;5044737;28;43964;-70
2022/12/11 00:42:11;;;;;;;6.20;5.90;;;17.10;62.40;;;;;;5043283;28;44061;-70
2022/12/11 00:44:39;;;;;;;6.27;5.97;;;17.10;62.60;;;;;;5060607;28;43524;-71
2022/12/11 00:47:07;;;;;;;6.20;5.90;;;17.10;62.50;;;;;;5081681;27;44047;-73
2022/12/11 00:49:35;;;;;;;6.13;5.83;;;17.10;62.40;;;;;;5084506;27;44101;-72
2022/12/11 00:52:05;;;;;;;6.20;5.90;;;17.10;62.40;;;;;;5086349;27;43443;-71
2022/12/11 00:54:34;;;;;;;6.20;5.90;;;17.10;62.40;;;;;;5067831;27;43534;-70
2022/12/11 00:57:02;;;;;;;6.20;5.90;;;17.10;62.40;;;;;;5078808;27;44158;-72
2022/12/11 00:59:29;;;;;;;5.70;5.40;;;17.10;62.50;;;;;;5085534;27;43891;-70
2022/12/11 01:01:57;;;;;;;5.60;5.40;;;17.10;62.70;;;;;;5086139;27;43512;-71
2022/12/11 01:04:25;;;;;;;5.80;5.60;;;17.20;62.70;;;;;;5076625;27;44012;-71
2022/12/11 01:06:53;;;;;;;6.60;6.20;;;17.20;63.00;;;;;;5075438;27;43863;-72
2022/12/11 01:12:08;;;;;;;6.00;5.77;;;17.30;61.70;;;;;;5074768;27;43666;-71
2022/12/11 01:14:36;;;;;;;5.73;5.43;;;17.30;61.90;;;;;;5073951;27;43466;-71
2022/12/11 01:17:04;;;;;;;5.73;5.43;;;17.30;62.10;;;;;;5074024;27;43940;-71
2022/12/11 01:19:32;;;;;;;5.93;5.70;;;17.20;61.90;;;;;;5073618;27;43526;-71
2022/12/11 01:22:00;;;;;;;5.90;5.70;;;17.20;61.90;;;;;;5078697;27;43817;-70
2022/12/11 01:24:29;;;;;;;6.70;6.30;;;17.20;62.00;;;;;;5079991;27;43449;-73
2022/12/11 01:26:57;;;;;;;6.10;5.80;;;17.20;62.10;;;;;;5063802;27;46090;-72
2022/12/11 01:29:25;;;;;;;6.47;6.10;;;17.20;62.20;;;;;;5065373;27;44755;-73
2022/12/11 01:31:53;;;;;;;6.50;6.20;;;17.20;62.50;;;;;;5084225;27;43442;-72
2022/12/11 01:34:21;;;;;;;6.40;6.10;;;17.10;62.30;;;;;;5078903;27;43449;-70
2022/12/11 01:36:49;;;;;;;6.97;6.57;;;17.20;62.30;;;;;;5078695;27;43797;-71
2022/12/11 01:39:16;;;;;;;6.30;6.00;;;17.10;62.30;;;;;;5056580;27;44886;-71
2022/12/11 01:41:46;;;;;;;6.23;5.93;;;17.10;62.30;;;;;;5079606;27;43840;-72
2022/12/11 01:44:47;;;;;;;6.57;6.27;;;17.10;62.40;;;;;;5081034;27;43745;-70
2022/12/11 01:47:15;;;;;;;6.10;5.80;;;17.10;62.70;;;;;;5067380;28;45789;-72
2022/12/11 01:49:43;;;;;;;6.40;6.10;;;17.10;62.70;;;;;;5066151;27;45086;-71
2022/12/11 01:52:14;;;;;;;6.47;6.07;;;17.20;62.50;;;;;;5075714;27;43426;-71
2022/12/11 01:54:42;;;;;;;6.30;6.00;;;17.20;62.10;;;;;;5085219;27;43860;-70
2022/12/11 01:57:11;;;;;;;5.90;5.70;;;17.30;62.20;;;;;;5078541;27;43623;-71
2022/12/11 01:59:41;;;;;;;6.50;6.20;;;17.20;62.10;;;;;;5076545;27;43454;-71
2022/12/11 02:02:11;;;;;;;6.50;6.20;;;17.20;62.20;;;;;;5082810;27;44039;-70
2022/12/11 02:04:39;;;;;;;6.67;6.37;;;17.20;62.40;;;;;;5084554;27;43490;-71
2022/12/11 02:07:07;;;;;;;6.53;6.23;;;17.20;62.20;;;;;;5079307;27;43864;-70
2022/12/11 02:09:35;;;;;;;6.57;6.27;;;17.20;62.30;;;;;;5075940;27;43458;-72
2022/12/11 02:12:06;;;;;;;6.10;5.90;;;17.20;62.30;;;;;;5082981;27;43537;-72
2022/12/11 02:14:38;;;;;;;6.17;5.90;;;17.10;63.00;;;;;;5078081;27;44055;-73
2022/12/11 02:17:09;;;;;;;6.40;6.10;;;17.10;62.40;;;;;;5081679;27;43946;-72
2022/12/11 02:19:45;;;;;;;6.20;5.90;;;17.10;62.60;;;;;;5077595;27;44024;-70
2022/12/11 02:22:15;;;;;;;6.67;6.37;;;17.10;62.50;;;;;;5080378;27;43449;-71
2022/12/11 02:24:51;;;;;;;6.00;5.70;;;17.10;62.40;;;;;;5062703;28;43638;-70
2022/12/11 02:27:23;;;;;;;6.47;6.17;;;17.10;62.40;;;;;;5065632;27;45667;-70
2022/12/11 02:29:53;;;;;;;5.70;5.50;;;17.10;62.40;;;;;;5067948;27;44647;-72
2022/12/11 02:32:22;;;;;;;6.13;5.83;;;17.10;62.60;;;;;;5086551;27;43476;-72
2022/12/11 02:34:54;;;;;;;6.27;5.97;;;17.00;62.70;;;;;;5085022;27;43529;-70
2022/12/11 02:37:23;;;;;;;6.27;5.97;;;17.10;62.60;;;;;;5085536;27;43604;-71
2022/12/11 02:39:52;;;;;;;6.73;6.33;;;17.10;62.50;;;;;;5061677;28;45021;-71
2022/12/11 02:42:20;;;;;;;6.37;6.07;;;17.10;62.50;;;;;;5086772;27;43875;-72
2022/12/11 02:44:48;;;;;;;6.60;6.30;;;17.10;62.60;;;;;;5075995;27;43565;-70
2022/12/11 02:47:18;;;;;;;6.70;6.40;;;17.10;62.70;;;;;;5082708;27;43895;-71
2022/12/11 02:49:47;;;;;;;7.27;6.77;;;17.00;62.70;;;;;;5080106;27;43467;-71
2022/12/11 02:52:16;;;;;;;6.60;6.20;;;17.10;63.00;;;;;;5085473;27;43489;-72
2022/12/11 02:54:44;;;;;;;6.23;5.93;;;17.10;62.70;;;;;;5080602;27;43536;-71
2022/12/11 02:57:14;;;;;;;6.50;6.20;;;17.20;62.40;;;;;;5088473;27;43907;-74
2022/12/11 02:59:43;;;;;;;7.23;6.83;;;17.30;62.10;;;;;;5067024;27;44860;-72
2022/12/11 03:02:11;;;;;;;6.53;6.17;;;17.30;61.90;;;;;;5081269;27;43482;-70
2022/12/11 03:04:41;;;;;;;6.30;5.97;;;17.30;62.00;;;;;;5085282;27;43465;-72
2022/12/11 03:07:12;;;;;;;6.03;5.73;;;17.20;62.20;;;;;;5082894;27;43829;-72
2022/12/11 03:09:40;;;;;;;6.60;6.30;;;17.20;62.10;;;;;;5075449;27;43633;-71
2022/12/11 03:12:08;;;;;;;6.30;6.00;;;17.20;62.20;;;;;;5080367;27;43498;-71
2022/12/11 03:14:37;;;;;;;6.63;6.33;;;17.20;62.20;;;;;;5084107;27;43632;-71
2022/12/11 03:17:08;;;;;;;6.57;6.27;;;17.20;62.30;;;;;;5078514;27;44001;-69
2022/12/11 03:19:37;;;;;;;6.67;6.30;;;17.10;62.30;;;;;;5084794;27;43451;-72
2022/12/11 03:22:09;;;;;;;5.80;5.60;;;17.10;62.70;;;;;;5083539;27;44751;-70
2022/12/11 03:24:39;;;;;;;6.47;6.17;;;17.10;62.60;;;;;;5081128;27;43965;-71
2022/12/11 03:27:08;;;;;;;6.57;6.27;;;17.10;62.50;;;;;;5081858;27;43944;-70
2022/12/11 03:29:39;;;;;;;6.60;6.27;;;17.10;62.50;;;;;;5087949;27;43555;-71
2022/12/11 03:32:08;;;;;;;6.60;6.30;;;17.10;62.50;;;;;;5079885;27;43484;-71
2022/12/11 03:34:38;;;;;;;6.40;6.07;;;17.10;62.60;;;;;;5065300;28;43432;-71
2022/12/11 03:37:08;;;;;;;7.00;6.60;;;17.10;62.70;;;;;;5086316;27;44627;-71
2022/12/11 03:39:38;;;;;;;6.80;6.30;;;17.00;62.60;;;;;;5083442;27;43774;-70
2022/12/11 03:42:07;;;;;;;6.83;6.43;;;17.00;62.50;;;;;;5081634;27;43666;-70
2022/12/11 03:44:35;;;;;;;7.27;6.87;;;17.10;62.60;;;;;;5065824;28;43515;-72
2022/12/11 03:47:05;;;;;;;6.63;6.33;;;17.00;62.50;;;;;;5083523;27;43931;-70
2022/12/11 03:49:35;;;;;;;7.00;6.50;;;17.00;62.60;;;;;;5062562;27;43572;-71
2022/12/11 03:52:03;;;;;;;6.33;6.03;;;17.00;62.60;;;;;;5060440;28;43524;-71
2022/12/11 03:54:32;;;;;;;6.63;6.23;;;17.00;62.90;;;;;;5067450;27;43572;-71
2022/12/11 03:57:01;;;;;;;7.10;6.70;;;17.00;62.90;;;;;;5065364;28;45340;-72
2022/12/11 03:59:29;;;;;;;6.90;6.50;;;17.20;62.70;;;;;;5068484;27;44316;-70
2022/12/11 04:01:57;;;;;;;7.30;6.83;;;17.20;62.20;;;;;;5086336;27;43475;-70
2022/12/11 04:04:25;;;;;;;6.70;6.33;;;17.20;62.20;;;;;;5086155;27;44068;-70
2022/12/11 04:06:53;;;;;;;6.70;6.30;;;17.20;62.20;;;;;;5085368;27;43599;-70
2022/12/11 04:09:21;;;;;;;6.50;6.20;;;17.20;62.50;;;;;;5081529;27;43453;-71
2022/12/11 04:11:50;;;;;;;6.43;6.13;;;17.10;62.40;;;;;;5079971;27;43488;-72
2022/12/11 04:17:03;;;;;;;7.30;6.83;;;17.10;62.40;;;;;;5073796;27;43923;-71
2022/12/11 04:25:03;;;;;;;7.80;7.20;;;17.00;62.80;;;;;;5088261;27;43435;-72
2022/12/11 04:27:50;;;;;;;7.97;7.30;;;17.00;62.80;;;;;;5087705;27;43568;-71
2022/12/11 04:30:19;;;;;;;8.20;7.30;;;17.00;62.90;;;;;;5080549;27;43493;-70
2022/12/11 04:32:47;;;;;;;8.10;7.47;;;17.00;62.80;;;;;;5077086;27;43544;-73
2022/12/11 04:35:15;;;;;;;7.67;7.07;;;17.00;62.80;;;;;;5067775;27;44262;-71
2022/12/11 04:37:43;;;;;;;9.73;7.53;;;17.00;62.80;;;;;;5082875;27;43920;-70
2022/12/11 04:40:12;;;;;;;13.20;8.73;;;17.00;62.90;;;;;;5085175;27;43450;-70
2022/12/11 04:42:42;;;;;;;9.37;8.30;;;17.00;63.10;;;;;;5083047;27;43610;-75
2022/12/11 04:45:11;;;;;;;13.93;8.50;;;17.00;63.00;;;;;;5078165;27;43441;-72
2022/12/11 04:47:40;;;;;;;9.73;8.07;;;17.10;62.70;;;;;;5086796;27;44029;-69
2022/12/11 04:50:10;;;;;;;10.17;8.77;;;17.20;62.30;;;;;;5078716;27;43433;-70
2022/12/11 04:52:38;;;;;;;12.03;8.67;;;17.20;62.20;;;;;;5081511;27;43473;-70
2022/12/11 04:55:06;;;;;;;9.10;8.20;;;17.20;62.10;;;;;;5086566;27;43594;-72
2022/12/11 04:57:35;;;;;;;10.23;9.20;;;17.20;62.50;;;;;;5082656;27;43862;-73
2022/12/11 05:00:05;;;;;;;11.03;8.50;;;17.20;62.30;;;;;;5076968;27;43514;-70
2022/12/11 05:02:34;;;;;;;10.57;8.80;;;17.20;62.20;;;;;;5082366;27;43423;-71
2022/12/11 05:05:03;;;;;;;10.97;8.43;;;17.10;62.20;;;;;;5079432;27;43517;-71
2022/12/11 05:07:31;;;;;;;11.37;8.50;;;17.10;62.20;;;;;;5070027;27;43904;-70
2022/12/11 05:09:59;;;;;;;12.03;8.50;;;17.10;62.30;;;;;;5063699;28;45004;-70
2022/12/11 05:12:28;;;;;;;13.50;8.50;;;17.10;62.40;;;;;;5062210;27;44109;-70
2022/12/11 05:14:56;;;;;;;9.47;8.23;;;17.10;62.40;;;;;;5084896;27;43977;-73
2022/12/11 05:17:25;;;;;;;9.73;8.27;;;17.10;62.40;;;;;;5061688;27;44036;-70
2022/12/11 05:19:53;;;;;;;11.47;8.80;;;17.10;62.30;;;;;;5086045;27;43482;-71
2022/12/11 05:22:21;;;;;;;11.57;8.47;;;17.10;62.30;;;;;;5081609;27;43846;-72
2022/12/11 05:24:49;;;;;;;9.23;8.10;;;17.10;62.30;;;;;;5060142;27;43996;-70
2022/12/11 05:27:17;;;;;;;10.87;8.87;;;17.10;62.40;;;;;;5081816;27;43882;-72
2022/12/11 05:29:45;;;;;;;9.40;8.37;;;17.10;62.50;;;;;;5077798;27;43466;-73
2022/12/11 05:32:13;;;;;;;8.93;8.03;;;17.10;62.40;;;;;;5057531;27;43554;-70
2022/12/11 05:34:42;;;;;;;9.10;8.03;;;17.10;62.40;;;;;;5082170;27;44052;-71
2022/12/11 05:37:10;;;;;;;9.90;8.13;;;17.10;62.40;;;;;;5075816;27;43899;-73
2022/12/11 05:39:38;;;;;;;8.27;7.47;;;17.10;62.50;;;;;;5077460;27;43458;-71
2022/12/11 05:42:06;;;;;;;10.23;8.37;;;17.10;62.60;;;;;;5084599;27;43421;-73
2022/12/11 05:44:34;;;;;;;8.77;7.87;;;17.00;62.60;;;;;;5080398;27;43480;-71
2022/12/11 05:47:02;;;;;;;9.00;7.77;;;17.10;62.90;;;;;;5063905;28;45652;-72
2022/12/11 05:49:30;;;;;;;12.43;8.20;;;17.20;62.80;;;;;;5059595;27;44740;-70
2022/12/11 05:51:59;;;;;;;10.43;8.37;;;17.20;62.20;;;;;;5078242;27;43465;-72
2022/12/11 05:54:27;;;;;;;9.30;7.37;;;17.30;62.00;;;;;;5080073;27;44059;-71
2022/12/11 05:56:55;;;;;;;8.07;7.30;;;17.30;62.00;;;;;;5073132;27;44356;-70
2022/12/11 05:59:23;;;;;;;8.47;7.60;;;17.20;62.20;;;;;;5078812;27;43521;-70
2022/12/11 06:01:51;;;;;;;10.97;7.60;;;17.20;62.20;;;;;;5067393;28;43518;-70
2022/12/11 06:04:19;;;;;;;8.00;7.20;;;17.20;62.20;;;;;;5079317;27;43921;-72
2022/12/11 06:06:47;;;;;;;8.37;7.57;;;17.20;62.20;;;;;;5074490;27;43895;-70
2022/12/11 06:09:16;;;;;;;8.43;7.53;;;17.20;62.40;;;;;;5078714;27;43549;-71
2022/12/11 06:11:44;;;;;;;8.30;7.50;;;17.10;62.40;;;;;;5083007;27;43453;-71
2022/12/11 06:14:13;;;;;;;7.70;7.00;;;17.10;62.40;;;;;;5089080;27;43465;-70
2022/12/11 06:16:41;;;;;;;8.10;7.30;;;17.10;62.70;;;;;;5077565;27;44780;-70
2022/12/11 06:19:13;;;;;;;8.63;7.73;;;17.00;62.50;;;;;;5078914;27;43927;-72
2022/12/11 06:21:41;;;;;;;7.63;6.83;;;17.00;62.50;;;;;;5062803;27;43435;-70
2022/12/11 06:24:10;;;;;;;7.80;7.10;;;17.00;62.60;;;;;;5064729;28;43440;-72
2022/12/11 06:26:39;;;;;;;8.50;7.23;;;17.00;62.60;;;;;;5084430;27;44166;-71
2022/12/11 06:29:07;;;;;;;7.60;6.90;;;17.00;62.70;;;;;;5085636;27;43535;-70
2022/12/11 06:31:39;;;;;;;12.13;7.47;;;17.00;62.90;;;;;;5069836;28;44049;-71
2022/12/11 06:34:08;;;;;;;7.13;6.43;;;17.00;62.70;;;;;;5080501;27;43462;-69
2022/12/11 06:36:36;;;;;;;7.37;6.87;;;17.00;62.60;;;;;;5068701;27;45585;-72
2022/12/11 06:39:04;;;;;;;7.23;6.63;;;17.00;62.60;;;;;;5083185;27;43442;-70
2022/12/11 06:41:32;;;;;;;7.53;6.83;;;17.00;62.50;;;;;;5082123;27;43465;-71
2022/12/11 06:44:01;;;;;;;8.00;7.13;;;17.00;62.50;;;;;;5084163;27;43971;-70
2022/12/11 06:46:29;;;;;;;7.73;6.93;;;17.00;62.60;;;;;;5075612;27;43943;-72
2022/12/11 06:48:57;;;;;;;6.73;6.23;;;17.00;62.70;;;;;;5082816;27;43490;-70
2022/12/11 06:51:25;;;;;;;7.73;7.00;;;17.10;62.50;;;;;;5084284;27;43499;-70
2022/12/11 06:53:53;;;;;;;7.53;6.83;;;17.20;62.10;;;;;;5063759;27;43665;-71
2022/12/11 06:56:21;;;;;;;7.00;6.40;;;17.20;61.90;;;;;;5065712;27;45803;-70
2022/12/11 06:58:50;;;;;;;7.53;6.77;;;17.20;61.70;;;;;;5088018;27;43559;-70
2022/12/11 07:01:20;;;;;;;8.07;6.93;;;17.20;61.70;;;;;;5067212;27;43427;-70
2022/12/11 07:03:48;;;;;;;7.23;6.63;;;17.10;61.90;;;;;;5079164;27;44284;-72
2022/12/11 07:06:16;;;;;;;7.27;6.70;;;17.20;61.80;;;;;;5082673;27;43856;-73
2022/12/11 07:08:44;;;;;;;6.87;6.30;;;17.10;61.60;;;;;;5084533;27;44769;-71
2022/12/11 07:11:13;;;;;;;7.30;6.63;;;17.20;61.80;;;;;;5092377;27;44622;-71
2022/12/11 07:13:41;;;;;;;6.77;6.27;;;17.10;61.70;;;;;;5085416;27;43418;-71
2022/12/11 07:16:10;;;;;;;7.57;6.87;;;17.10;61.70;;;;;;5068720;27;45742;-71
2022/12/11 07:18:40;;;;;;;7.10;6.60;;;17.10;62.00;;;;;;5075336;27;43527;-71
2022/12/11 07:21:08;;;;;;;6.47;5.97;;;17.00;61.80;;;;;;5083356;27;43936;-72
2022/12/11 07:23:36;;;;;;;6.53;6.03;;;17.10;61.90;;;;;;5085401;27;43773;-71
2022/12/11 07:26:04;;;;;;;7.00;6.40;;;17.10;61.90;;;;;;5086290;27;43915;-70
2022/12/11 07:28:33;;;;;;;6.73;6.27;;;17.00;61.80;;;;;;5086709;27;43433;-71
2022/12/11 07:31:05;;;;;;;7.17;6.57;;;17.00;61.90;;;;;;5082688;27;43486;-71
2022/12/11 07:33:33;;;;;;;6.97;6.43;;;17.00;62.00;;;;;;5078717;27;44205;-72
2022/12/11 07:36:03;;;;;;;7.33;6.67;;;17.00;62.30;;;;;;5067244;27;46269;-73
2022/12/11 07:38:31;;;;;;;6.60;6.07;;;17.10;62.30;;;;;;5087413;27;44234;-71
2022/12/11 07:41:00;;;;;;;6.70;6.10;;;17.10;61.90;;;;;;5082638;27;43829;-71
2022/12/11 07:43:28;;;;;;;6.47;5.90;;;17.20;61.60;;;;;;5078935;27;43573;-70
2022/12/11 07:46:00;;;;;;;6.90;6.40;;;17.20;61.50;;;;;;5083216;27;43864;-71
2022/12/11 07:48:28;;;;;;;6.67;6.20;;;17.20;61.60;;;;;;5076075;27;44065;-71
2022/12/11 07:50:56;;;;;;;6.03;5.63;;;17.10;61.80;;;;;;5083076;27;43388;-70
2022/12/11 07:53:26;;;;;;;7.37;6.67;;;17.10;61.70;;;;;;5087324;27;43455;-70
2022/12/11 07:55:54;;;;;;;6.27;5.77;;;17.10;61.60;;;;;;5079267;27;43960;-70
2022/12/11 07:58:22;;;;;;;6.60;6.10;;;17.10;61.60;;;;;;5081312;27;43525;-72
2022/12/11 08:00:50;;;;;;;6.10;5.70;;;17.00;61.60;;;;;;5061466;27;43530;-73
2022/12/11 08:03:19;;;;;;;6.57;6.07;;;17.00;61.60;;;;;;5079503;27;44001;-70
2022/12/11 08:05:48;;;;;;;6.40;6.03;;;17.00;61.80;;;;;;5069227;27;44039;-71
2022/12/11 08:08:16;;;;;;;6.50;6.10;;;17.00;61.70;;;;;;5082940;27;45093;-74
2022/12/11 08:10:46;;;;;;;6.37;5.97;;;17.00;61.60;;;;;;5082045;27;43644;-71
2022/12/11 08:13:14;;;;;;;6.80;6.30;;;17.00;61.70;;;;;;5086243;27;43750;-71
2022/12/11 08:15:42;;;;;;;6.43;6.03;;;17.00;61.70;;;;;;5087465;27;43596;-71
2022/12/11 08:18:10;;;;;;;6.80;6.30;;;17.00;61.80;;;;;;5080925;27;43619;-69
2022/12/11 08:20:38;;;;;;;6.20;5.80;;;16.90;61.80;;;;;;5081013;27;43967;-70
2022/12/11 08:23:06;;;;;;;6.20;5.80;;;17.00;62.20;;;;;;5085978;27;44639;-71
2022/12/11 08:25:34;;;;;;;6.57;5.97;;;17.00;62.20;;;;;;5087099;27;43865;-70
2022/12/11 08:28:03;;;;;;;6.50;6.07;;;17.10;61.90;;;;;;5061269;27;43971;-70
2022/12/11 08:30:31;;;;;;;6.30;5.90;;;17.10;61.50;;;;;;5068873;28;44648;-70
2022/12/11 08:33:00;;;;;;;6.43;5.93;;;17.10;61.40;;;;;;5081600;27;43484;-70
2022/12/11 08:35:27;;;;;;;5.53;5.23;;;17.10;61.50;;;;;;5068123;27;46070;-70
2022/12/11 08:37:55;;;;;;;5.97;5.47;;;17.10;61.60;;;;;;5086458;28;43525;-71
2022/12/11 08:40:23;;;;;;;6.43;5.90;;;17.10;61.70;;;;;;5086319;28;43425;-71
2022/12/11 08:42:51;;;;;;;6.03;5.63;;;17.00;61.60;;;;;;5088002;27;43466;-71
2022/12/11 08:45:21;;;;;;;6.67;6.17;;;17.00;61.60;;;;;;5086934;28;43939;-72
2022/12/11 08:47:49;;;;;;;6.30;5.80;;;17.00;61.60;;;;;;5087445;28;43751;-71
2022/12/11 08:50:17;;;;;;;5.80;5.50;;;17.00;61.70;;;;;;5086005;27;43506;-72
2022/12/11 08:52:44;;;;;;;6.37;5.87;;;17.00;61.80;;;;;;5087901;28;43477;-71
2022/12/11 08:55:12;;;;;;;6.50;6.10;;;17.00;62.00;;;;;;5087540;27;43801;-71
2022/12/11 08:57:41;;;;;;;5.57;5.27;;;17.00;61.90;;;;;;5084056;27;43441;-71
2022/12/11 09:00:11;;;;;;;6.30;5.90;;;17.00;61.80;;;;;;5087406;27;43620;-71
2022/12/11 09:02:40;;;;;;;6.30;5.90;;;16.90;61.70;;;;;;5068170;28;43973;-71
2022/12/11 09:05:08;;;;;;;6.47;6.00;;;17.00;61.80;;;;;;5085420;27;44043;-71
2022/12/11 09:07:37;;;;;;;6.40;5.90;;;17.00;61.80;;;;;;5083453;27;43467;-71
2022/12/11 09:10:06;;;;;;;6.50;6.00;;;17.00;62.00;;;;;;5085603;27;43841;-70
2022/12/11 09:12:35;;;;;;;6.30;5.90;;;17.00;62.20;;;;;;5085883;27;43427;-71
2022/12/11 09:15:03;;;;;;;6.93;6.43;;;17.00;62.00;;;;;;5086021;27;43900;-71
2022/12/11 09:17:30;;;;;;;6.40;6.00;;;17.10;61.60;;;;;;5083078;27;44037;-71
2022/12/11 09:20:00;;;;;;;6.20;5.77;;;17.10;61.40;;;;;;5078983;27;43553;-71
2022/12/11 09:22:28;;;;;;;6.23;5.83;;;17.10;61.30;;;;;;5066662;27;43633;-71
2022/12/11 09:24:56;;;;;;;6.00;5.60;;;17.10;61.40;;;;;;5066328;27;44672;-72
2022/12/11 09:27:24;;;;;;;6.63;6.13;;;17.00;61.60;;;;;;5083731;27;43575;-70
2022/12/11 09:29:52;;;;;;;6.03;5.63;;;17.00;61.50;;;;;;5061896;27;43481;-70
2022/12/11 09:32:20;;;;;;;6.07;5.67;;;17.00;61.50;;;;;;5084588;27;43637;-73
2022/12/11 09:34:50;;;;;;;6.07;5.67;;;17.00;61.50;;;;;;5085578;27;43827;-70
2022/12/11 09:37:19;;;;;;;6.83;6.33;;;17.00;61.70;;;;;;5081550;27;44948;-72
2022/12/11 09:39:47;;;;;;;6.70;6.20;;;17.00;61.70;;;;;;5066648;28;43459;-70
2022/12/11 09:42:17;;;;;;;6.40;5.90;;;17.00;61.90;;;;;;5085687;27;43465;-71
2022/12/11 09:44:47;;;;;;;6.10;5.70;;;17.00;61.90;;;;;;5086624;27;44082;-70
2022/12/11 09:47:21;;;;;;;6.13;5.77;;;17.00;61.80;;;;;;5084329;27;44386;-69
2022/12/11 09:49:51;;;;;;;6.13;5.73;;;17.00;61.90;;;;;;5084435;27;43453;-72
2022/12/11 09:52:21;;;;;;;5.73;5.43;;;16.90;61.80;;;;;;5084963;27;43455;-71
2022/12/11 09:54:50;;;;;;;5.90;5.60;;;16.90;61.80;;;;;;5085626;27;44336;-71
2022/12/11 09:57:29;;;;;;;6.23;5.83;;;16.90;62.00;;;;;;5084540;27;44122;-70
2022/12/11 10:00:13;;;;;;;6.67;6.17;;;16.90;62.10;;;;;;5065850;28;43973;-70
2022/12/11 10:02:49;;;;;;;6.17;5.77;;;17.00;61.90;;;;;;5084851;27;43489;-70
2022/12/11 10:05:20;;;;;;;5.47;5.17;;;17.00;61.60;;;;;;5069373;27;47937;-71
2022/12/11 10:07:51;;;;;;;6.47;6.07;;;17.00;61.50;;;;;;5087739;27;44135;-72
2022/12/11 10:10:22;;;;;;;6.10;5.70;;;17.00;61.50;;;;;;5087937;27;43878;-72
2022/12/11 10:12:54;;;;;;;5.93;5.63;;;17.00;61.60;;;;;;5090863;27;43495;-72
2022/12/11 10:15:29;;;;;;;5.77;5.47;;;17.00;61.80;;;;;;5088755;27;43867;-71
2022/12/11 10:17:57;;;;;;;5.90;5.60;;;17.00;61.60;;;;;;5067308;28;45626;-71
2022/12/11 10:20:35;;;;;;;6.20;5.90;;;17.00;61.60;;;;;;5086733;27;44115;-71
2022/12/11 10:23:05;;;;;;;5.93;5.53;;;17.00;61.60;;;;;;5090300;27;43903;-72
2022/12/11 10:25:35;;;;;;;5.80;5.40;;;17.00;61.60;;;;;;5071504;28;46024;-71
2022/12/11 10:28:10;;;;;;;5.93;5.60;;;16.90;61.60;;;;;;5086684;27;43489;-69
2022/12/11 10:30:39;;;;;;;5.90;5.50;;;16.90;61.90;;;;;;5088854;27;43446;-73
2022/12/11 10:33:11;;;;;;;5.83;5.53;;;16.90;61.70;;;;;;5090250;27;43781;-71
2022/12/11 10:35:42;;;;;;;5.63;5.33;;;16.90;61.70;;;;;;5085107;27;44647;-70
2022/12/11 10:38:13;;;;;;;6.43;6.03;;;16.90;61.60;;;;;;5087460;27;43511;-72
2022/12/11 10:40:43;;;;;;;5.83;5.53;;;16.90;61.70;;;;;;5091104;27;43527;-71
2022/12/11 10:43:11;;;;;;;6.23;5.83;;;16.90;61.70;;;;;;5089578;27;43477;-71
2022/12/11 10:45:39;;;;;;;6.33;5.93;;;16.90;61.70;;;;;;5086462;27;43908;-71
2022/12/11 10:48:10;;;;;;;6.53;6.03;;;16.90;62.00;;;;;;5087564;27;43591;-71
2022/12/11 10:50:38;;;;;;;6.00;5.70;;;16.90;61.90;;;;;;5086940;27;43920;-71
2022/12/11 10:53:06;;;;;;;6.33;5.93;;;17.00;61.60;;;;;;5087967;27;44738;-70
2022/12/11 10:55:39;;;;;;;6.17;5.83;;;17.10;61.30;;;;;;5087112;27;43661;-71
2022/12/11 10:58:07;;;;;;;5.70;5.40;;;17.10;61.10;;;;;;5087253;27;43473;-71
2022/12/11 11:00:36;;;;;;;6.33;5.93;;;17.10;61.10;;;;;;5086498;27;43462;-70
2022/12/11 11:03:04;;;;;;;6.00;5.63;;;17.00;61.30;;;;;;5087521;27;43461;-71
2022/12/11 11:05:34;;;;;;;5.33;5.13;;;17.10;61.40;;;;;;5073616;27;45548;-72
2022/12/11 11:08:14;;;;;;;5.80;5.50;;;17.00;61.20;;;;;;5071127;27;44832;-70
2022/12/11 11:10:54;;;;;;;5.83;5.43;;;17.00;61.30;;;;;;5073670;27;44118;-71
2022/12/11 11:13:22;;;;;;;5.97;5.67;;;17.00;61.40;;;;;;5086096;27;43574;-70
2022/12/11 11:15:50;;;;;;;6.03;5.63;;;17.00;61.40;;;;;;5086176;27;43603;-72
2022/12/11 11:18:22;;;;;;;5.67;5.37;;;16.90;61.50;;;;;;5087700;27;43509;-70
2022/12/11 11:20:50;;;;;;;6.40;6.00;;;16.90;61.50;;;;;;5086565;27;43883;-70
2022/12/11 11:23:20;;;;;;;5.70;5.40;;;17.00;61.60;;;;;;5087727;27;43586;-74
2022/12/11 11:25:54;;;;;;;5.17;4.90;;;17.00;61.60;;;;;;5085396;27;43600;-71
2022/12/11 11:28:23;;;;;;;5.90;5.60;;;17.00;61.60;;;;;;5087513;27;43581;-71
2022/12/11 11:31:00;;;;;;;5.63;5.33;;;16.90;61.50;;;;;;5062989;28;43472;-69
2022/12/11 11:33:28;;;;;;;6.30;5.90;;;16.90;61.60;;;;;;5087912;27;45213;-71
2022/12/11 11:35:57;;;;;;;5.90;5.53;;;16.90;61.70;;;;;;5086160;27;43916;-70
2022/12/11 11:38:26;;;;;;;6.10;5.70;;;16.90;61.50;;;;;;5066808;27;46810;-72
2022/12/11 11:40:59;;;;;;;6.57;6.07;;;16.90;61.50;;;;;;5085759;27;43452;-72
2022/12/11 11:43:36;;;;;;;6.33;5.93;;;16.90;61.50;;;;;;5086315;27;43486;-71
2022/12/11 11:46:06;;;;;;;6.30;5.90;;;16.90;61.50;;;;;;5084958;27;44100;-71
2022/12/11 11:48:38;;;;;;;6.00;5.70;;;16.90;61.50;;;;;;5086184;27;43546;-71
2022/12/11 11:51:12;;;;;;;6.60;6.20;;;16.90;61.70;;;;;;5081999;27;44015;-71
2022/12/11 11:53:40;;;;;;;6.33;5.93;;;16.90;61.80;;;;;;5080239;27;45146;-70
2022/12/11 11:56:17;;;;;;;6.13;5.73;;;17.00;62.40;;;;;;5081782;27;43897;-72
2022/12/11 11:58:47;;;;;;;5.80;5.50;;;17.00;61.30;;;;;;5086938;27;44022;-71
2022/12/11 12:01:16;;;;;;;6.03;5.73;;;17.10;61.10;;;;;;5086185;27;43448;-73
2022/12/11 12:03:44;;;;;;;5.93;5.63;;;17.10;61.10;;;;;;5087080;27;43446;-72
2022/12/11 12:06:14;;;;;;;6.03;5.73;;;17.00;61.10;;;;;;5086268;27;43892;-71
2022/12/11 12:08:46;;;;;;;6.30;6.00;;;17.00;61.20;;;;;;5088579;27;43422;-71
2022/12/11 12:11:21;;;;;;;5.80;5.50;;;17.00;61.20;;;;;;5089092;27;43449;-71
2022/12/11 12:13:52;;;;;;;5.83;5.53;;;17.00;61.20;;;;;;5073049;27;43571;-70
2022/12/11 12:16:24;;;;;;;5.30;5.00;;;17.00;61.20;;;;;;5067475;27;46006;-71
2022/12/11 12:19:16;;;;;;;5.50;5.30;;;17.00;61.30;;;;;;5085710;27;43488;-72
2022/12/11 12:21:46;;;;;;;5.57;5.27;;;16.90;61.30;;;;;;5084914;27;43755;-70
2022/12/11 12:24:18;;;;;;;5.13;4.83;;;17.00;61.60;;;;;;5061134;27;43499;-70
2022/12/11 12:26:51;;;;;;;5.53;5.23;;;17.00;61.40;;;;;;5084479;27;44106;-72
2022/12/11 12:29:23;;;;;;;5.67;5.43;;;17.00;61.50;;;;;;5067938;28;43570;-70
2022/12/11 12:31:57;;;;;;;5.43;5.13;;;17.00;61.50;;;;;;5081672;28;43769;-70
2022/12/11 12:34:32;;;;;;;5.20;5.00;;;16.90;61.50;;;;;;5088163;27;43417;-72
2022/12/11 12:37:03;;;;;;;5.50;5.30;;;16.90;61.50;;;;;;5067196;28;45923;-70
2022/12/11 12:39:35;;;;;;;5.47;5.20;;;16.90;61.70;;;;;;5066601;27;44576;-70
2022/12/11 12:42:07;;;;;;;5.50;5.30;;;16.90;61.90;;;;;;5085426;27;43883;-71
2022/12/11 12:44:37;;;;;;;5.27;4.93;;;16.90;61.70;;;;;;5069463;28;43658;-72
2022/12/11 12:47:07;;;;;;;5.10;4.90;;;17.00;61.30;;;;;;5090529;27;43825;-70
2022/12/11 12:49:38;;;;;;;4.87;4.67;;;17.00;61.20;;;;;;5089066;27;43490;-71
2022/12/11 12:52:07;;;;;;;5.27;4.97;;;17.00;61.20;;;;;;5087326;28;43469;-70
2022/12/11 12:54:35;;;;;;;4.93;4.73;;;17.00;61.30;;;;;;5082307;28;44108;-70
2022/12/11 12:57:04;;;;;;;5.97;5.17;;;17.00;61.50;;;;;;5085132;27;43588;-72
2022/12/11 12:59:32;;;;;;;5.23;4.93;;;17.00;61.40;;;;;;5087171;28;43846;-70
2022/12/11 13:02:01;;;;;;;5.23;4.60;;;17.00;61.50;;;;;;5087234;28;43460;-70
2022/12/11 13:04:38;;;;;;;5.17;4.93;;;17.00;61.50;;;;;;5087552;28;43436;-71
2022/12/11 13:07:28;;;;;;;6.57;5.20;;;17.00;61.60;;;;;;5070011;28;45880;-72